sensor_id;sensor_type;location;lat;lon;timestamp;P1;durP1;ratioP1;P2;durP2;ratioP2
3068;SDS011;1545;51.728;8.796;2022-08-01T00:01:54;45.97;;;23.50;;
3068;SDS011;1545;51.728;8.796;2022-08-01T00:04:43;48.47;;;25.60;;
3068;SDS011;1545;51.728;8.796;2022-08-01T00:07:45;42.20;;;24.47;;
3068;SDS011;1545;51.728;8.796;2022-08-01T00:10:34;50.70;;;25.07;;
3068;SDS011;1545;51.728;8.796;2022-08-01T00:13:11;41.47;;;24.03;;
3068;SDS011;1545;51.728;8.796;2022-08-01T00:15:39;46.73;;;23.90;;
3068;SDS011;1545;51.728;8.796;2022-08-01T00:18:28;47.43;;;23.80;;
3068;SDS011;1545;51.728;8.796;2022-08-01T00:21:23;48.03;;;24.43;;
3068;SDS011;1545;51.728;8.796;2022-08-01T00:24:15;46.00;;;25.50;;
3068;SDS011;1545;51.728;8.796;2022-08-01T00:27:13;49.90;;;24.20;;
3068;SDS011;1545;51.728;8.796;2022-08-01T00:29:38;51.07;;;25.23;;
3068;SDS011;1545;51.728;8.796;2022-08-01T00:32:06;47.17;;;24.80;;
3068;SDS011;1545;51.728;8.796;2022-08-01T00:34:34;39.43;;;23.10;;
3068;SDS011;1545;51.728;8.796;2022-08-01T00:37:02;49.90;;;25.10;;
3068;SDS011;1545;51.728;8.796;2022-08-01T00:39:33;55.90;;;24.10;;
3068;SDS011;1545;51.728;8.796;2022-08-01T00:41:59;53.40;;;25.27;;
3068;SDS011;1545;51.728;8.796;2022-08-01T00:44:48;46.10;;;23.27;;
3068;SDS011;1545;51.728;8.796;2022-08-01T00:47:16;45.10;;;23.80;;
3068;SDS011;1545;51.728;8.796;2022-08-01T00:49:49;45.83;;;24.07;;
3068;SDS011;1545;51.728;8.796;2022-08-01T00:52:15;52.23;;;24.67;;
3068;SDS011;1545;51.728;8.796;2022-08-01T00:54:51;51.50;;;25.23;;
3068;SDS011;1545;51.728;8.796;2022-08-01T00:57:19;51.43;;;25.03;;
3068;SDS011;1545;51.728;8.796;2022-08-01T00:59:45;44.30;;;25.07;;
3068;SDS011;1545;51.728;8.796;2022-08-01T01:02:23;47.00;;;24.40;;
3068;SDS011;1545;51.728;8.796;2022-08-01T01:05:05;50.70;;;25.33;;
3068;SDS011;1545;51.728;8.796;2022-08-01T01:07:33;49.20;;;25.80;;
3068;SDS011;1545;51.728;8.796;2022-08-01T01:13:13;51.07;;;26.43;;
3068;SDS011;1545;51.728;8.796;2022-08-01T01:19:08;55.50;;;27.80;;
3068;SDS011;1545;51.728;8.796;2022-08-01T01:22:00;49.13;;;26.97;;
3068;SDS011;1545;51.728;8.796;2022-08-01T01:31:06;57.53;;;28.77;;
3068;SDS011;1545;51.728;8.796;2022-08-01T01:33:39;53.87;;;27.77;;
3068;SDS011;1545;51.728;8.796;2022-08-01T01:36:10;57.33;;;27.20;;
3068;SDS011;1545;51.728;8.796;2022-08-01T01:38:42;64.23;;;29.83;;
3068;SDS011;1545;51.728;8.796;2022-08-01T01:41:16;50.80;;;27.47;;
3068;SDS011;1545;51.728;8.796;2022-08-01T01:43:43;38.80;;;22.23;;
3068;SDS011;1545;51.728;8.796;2022-08-01T01:46:15;36.87;;;20.63;;
3068;SDS011;1545;51.728;8.796;2022-08-01T01:48:49;34.83;;;20.07;;
3068;SDS011;1545;51.728;8.796;2022-08-01T01:51:19;32.57;;;19.73;;
3068;SDS011;1545;51.728;8.796;2022-08-01T01:53:47;33.47;;;16.63;;
3068;SDS011;1545;51.728;8.796;2022-08-01T01:56:22;29.77;;;16.23;;
3068;SDS011;1545;51.728;8.796;2022-08-01T01:58:59;30.23;;;16.00;;
3068;SDS011;1545;51.728;8.796;2022-08-01T02:05:07;32.47;;;15.43;;
3068;SDS011;1545;51.728;8.796;2022-08-01T02:11:41;30.97;;;16.43;;
3068;SDS011;1545;51.728;8.796;2022-08-01T02:18:24;29.17;;;15.07;;
3068;SDS011;1545;51.728;8.796;2022-08-01T02:23:39;32.70;;;16.63;;
3068;SDS011;1545;51.728;8.796;2022-08-01T02:26:35;33.03;;;15.90;;
3068;SDS011;1545;51.728;8.796;2022-08-01T02:29:17;27.50;;;15.53;;
3068;SDS011;1545;51.728;8.796;2022-08-01T02:32:07;31.43;;;15.07;;
3068;SDS011;1545;51.728;8.796;2022-08-01T02:34:54;31.23;;;15.27;;
3068;SDS011;1545;51.728;8.796;2022-08-01T02:37:33;33.33;;;15.47;;
3068;SDS011;1545;51.728;8.796;2022-08-01T02:40:09;25.87;;;14.77;;
3068;SDS011;1545;51.728;8.796;2022-08-01T02:42:49;29.27;;;15.03;;
3068;SDS011;1545;51.728;8.796;2022-08-01T02:45:27;34.77;;;15.27;;
3068;SDS011;1545;51.728;8.796;2022-08-01T02:48:14;31.73;;;15.33;;
3068;SDS011;1545;51.728;8.796;2022-08-01T02:50:47;29.50;;;14.73;;
3068;SDS011;1545;51.728;8.796;2022-08-01T02:53:26;34.47;;;15.23;;
3068;SDS011;1545;51.728;8.796;2022-08-01T02:56:02;29.80;;;15.30;;
3068;SDS011;1545;51.728;8.796;2022-08-01T02:58:33;33.27;;;17.23;;
3068;SDS011;1545;51.728;8.796;2022-08-01T03:01:02;30.87;;;15.77;;
3068;SDS011;1545;51.728;8.796;2022-08-01T03:03:31;33.70;;;16.43;;
3068;SDS011;1545;51.728;8.796;2022-08-01T03:06:00;34.60;;;17.30;;
3068;SDS011;1545;51.728;8.796;2022-08-01T03:08:36;42.47;;;18.37;;
3068;SDS011;1545;51.728;8.796;2022-08-01T03:11:11;35.37;;;18.10;;
3068;SDS011;1545;51.728;8.796;2022-08-01T03:13:44;36.37;;;16.90;;
3068;SDS011;1545;51.728;8.796;2022-08-01T03:16:12;34.50;;;16.97;;
3068;SDS011;1545;51.728;8.796;2022-08-01T03:18:47;35.33;;;16.53;;
3068;SDS011;1545;51.728;8.796;2022-08-01T03:21:26;33.80;;;16.50;;
3068;SDS011;1545;51.728;8.796;2022-08-01T03:23:57;34.33;;;17.30;;
3068;SDS011;1545;51.728;8.796;2022-08-01T03:26:35;34.83;;;19.03;;
3068;SDS011;1545;51.728;8.796;2022-08-01T03:29:12;40.27;;;19.50;;
3068;SDS011;1545;51.728;8.796;2022-08-01T03:31:42;37.67;;;18.10;;
3068;SDS011;1545;51.728;8.796;2022-08-01T03:34:10;38.37;;;17.30;;
3068;SDS011;1545;51.728;8.796;2022-08-01T03:36:42;36.07;;;17.23;;
3068;SDS011;1545;51.728;8.796;2022-08-01T03:39:12;32.80;;;16.93;;
3068;SDS011;1545;51.728;8.796;2022-08-01T03:41:43;29.03;;;16.07;;
3068;SDS011;1545;51.728;8.796;2022-08-01T03:44:14;28.10;;;16.23;;
3068;SDS011;1545;51.728;8.796;2022-08-01T03:46:48;26.60;;;15.47;;
3068;SDS011;1545;51.728;8.796;2022-08-01T03:49:22;27.23;;;14.63;;
3068;SDS011;1545;51.728;8.796;2022-08-01T03:51:54;37.33;;;15.17;;
3068;SDS011;1545;51.728;8.796;2022-08-01T03:54:23;25.70;;;14.07;;
3068;SDS011;1545;51.728;8.796;2022-08-01T03:56:53;28.67;;;14.40;;
3068;SDS011;1545;51.728;8.796;2022-08-01T03:59:19;28.10;;;14.57;;
3068;SDS011;1545;51.728;8.796;2022-08-01T04:01:49;30.80;;;14.10;;
3068;SDS011;1545;51.728;8.796;2022-08-01T04:04:17;30.13;;;15.33;;
3068;SDS011;1545;51.728;8.796;2022-08-01T04:06:46;28.53;;;13.33;;
3068;SDS011;1545;51.728;8.796;2022-08-01T04:09:18;26.00;;;14.63;;
3068;SDS011;1545;51.728;8.796;2022-08-01T04:11:45;28.80;;;14.17;;
3068;SDS011;1545;51.728;8.796;2022-08-01T04:14:19;27.53;;;15.07;;
3068;SDS011;1545;51.728;8.796;2022-08-01T04:16:45;36.93;;;15.10;;
3068;SDS011;1545;51.728;8.796;2022-08-01T04:19:11;27.60;;;13.43;;
3068;SDS011;1545;51.728;8.796;2022-08-01T04:21:38;27.30;;;12.03;;
3068;SDS011;1545;51.728;8.796;2022-08-01T04:24:08;27.77;;;12.03;;
3068;SDS011;1545;51.728;8.796;2022-08-01T04:26:39;20.40;;;11.83;;
3068;SDS011;1545;51.728;8.796;2022-08-01T04:29:10;20.87;;;11.10;;
3068;SDS011;1545;51.728;8.796;2022-08-01T04:31:41;21.90;;;11.07;;
3068;SDS011;1545;51.728;8.796;2022-08-01T04:34:11;22.53;;;10.70;;
3068;SDS011;1545;51.728;8.796;2022-08-01T04:36:40;20.60;;;11.67;;
3068;SDS011;1545;51.728;8.796;2022-08-01T04:39:07;23.40;;;11.67;;
3068;SDS011;1545;51.728;8.796;2022-08-01T04:41:34;17.90;;;10.77;;
3068;SDS011;1545;51.728;8.796;2022-08-01T04:44:04;23.03;;;11.17;;
3068;SDS011;1545;51.728;8.796;2022-08-01T04:46:38;19.63;;;12.10;;
3068;SDS011;1545;51.728;8.796;2022-08-01T04:49:07;23.87;;;12.47;;
3068;SDS011;1545;51.728;8.796;2022-08-01T04:51:36;19.90;;;11.63;;
3068;SDS011;1545;51.728;8.796;2022-08-01T04:54:13;22.60;;;11.90;;
3068;SDS011;1545;51.728;8.796;2022-08-01T04:56:42;19.53;;;11.60;;
3068;SDS011;1545;51.728;8.796;2022-08-01T04:59:07;19.20;;;10.87;;
3068;SDS011;1545;51.728;8.796;2022-08-01T05:01:51;21.40;;;11.93;;
3068;SDS011;1545;51.728;8.796;2022-08-01T05:04:17;22.37;;;12.10;;
3068;SDS011;1545;51.728;8.796;2022-08-01T05:06:50;17.53;;;10.47;;
3068;SDS011;1545;51.728;8.796;2022-08-01T05:09:23;17.50;;;9.97;;
3068;SDS011;1545;51.728;8.796;2022-08-01T05:11:48;19.70;;;10.30;;
3068;SDS011;1545;51.728;8.796;2022-08-01T05:14:16;17.97;;;11.07;;
3068;SDS011;1545;51.728;8.796;2022-08-01T05:16:46;17.30;;;10.70;;
3068;SDS011;1545;51.728;8.796;2022-08-01T05:19:14;19.67;;;11.10;;
3068;SDS011;1545;51.728;8.796;2022-08-01T05:21:50;16.77;;;9.63;;
3068;SDS011;1545;51.728;8.796;2022-08-01T05:24:21;18.30;;;10.13;;
3068;SDS011;1545;51.728;8.796;2022-08-01T05:26:49;23.43;;;10.50;;
3068;SDS011;1545;51.728;8.796;2022-08-01T05:29:21;21.97;;;11.17;;
3068;SDS011;1545;51.728;8.796;2022-08-01T05:32:02;18.53;;;9.90;;
3068;SDS011;1545;51.728;8.796;2022-08-01T05:34:38;18.80;;;10.27;;
3068;SDS011;1545;51.728;8.796;2022-08-01T05:37:04;21.80;;;11.27;;
3068;SDS011;1545;51.728;8.796;2022-08-01T05:39:32;19.93;;;9.73;;
3068;SDS011;1545;51.728;8.796;2022-08-01T05:42:01;16.77;;;9.63;;
3068;SDS011;1545;51.728;8.796;2022-08-01T05:44:27;17.87;;;10.53;;
3068;SDS011;1545;51.728;8.796;2022-08-01T05:47:00;18.53;;;9.23;;
3068;SDS011;1545;51.728;8.796;2022-08-01T05:49:27;26.90;;;11.00;;
3068;SDS011;1545;51.728;8.796;2022-08-01T05:51:55;17.43;;;10.07;;
3068;SDS011;1545;51.728;8.796;2022-08-01T05:54:24;17.03;;;9.60;;
3068;SDS011;1545;51.728;8.796;2022-08-01T05:56:56;18.57;;;10.43;;
3068;SDS011;1545;51.728;8.796;2022-08-01T05:59:29;24.03;;;10.60;;
3068;SDS011;1545;51.728;8.796;2022-08-01T06:01:55;22.67;;;11.10;;
3068;SDS011;1545;51.728;8.796;2022-08-01T06:04:21;20.70;;;10.67;;
3068;SDS011;1545;51.728;8.796;2022-08-01T06:06:49;19.73;;;10.27;;
3068;SDS011;1545;51.728;8.796;2022-08-01T06:09:17;22.90;;;10.67;;
3068;SDS011;1545;51.728;8.796;2022-08-01T06:11:47;21.17;;;11.23;;
3068;SDS011;1545;51.728;8.796;2022-08-01T06:14:18;22.67;;;11.13;;
3068;SDS011;1545;51.728;8.796;2022-08-01T06:16:43;23.47;;;11.50;;
3068;SDS011;1545;51.728;8.796;2022-08-01T06:19:12;24.93;;;11.40;;
3068;SDS011;1545;51.728;8.796;2022-08-01T06:21:38;26.57;;;12.10;;
3068;SDS011;1545;51.728;8.796;2022-08-01T06:24:11;19.97;;;12.50;;
3068;SDS011;1545;51.728;8.796;2022-08-01T06:26:37;22.17;;;12.83;;
3068;SDS011;1545;51.728;8.796;2022-08-01T06:29:02;21.60;;;12.37;;
3068;SDS011;1545;51.728;8.796;2022-08-01T06:31:28;36.50;;;13.10;;
3068;SDS011;1545;51.728;8.796;2022-08-01T06:33:56;20.57;;;12.57;;
3068;SDS011;1545;51.728;8.796;2022-08-01T06:36:22;25.10;;;12.83;;
3068;SDS011;1545;51.728;8.796;2022-08-01T06:38:47;22.30;;;12.47;;
3068;SDS011;1545;51.728;8.796;2022-08-01T06:41:13;21.17;;;12.00;;
3068;SDS011;1545;51.728;8.796;2022-08-01T06:43:38;17.97;;;11.37;;
3068;SDS011;1545;51.728;8.796;2022-08-01T06:46:04;22.13;;;11.80;;
3068;SDS011;1545;51.728;8.796;2022-08-01T06:48:29;21.30;;;12.30;;
3068;SDS011;1545;51.728;8.796;2022-08-01T06:50:55;21.10;;;12.23;;
3068;SDS011;1545;51.728;8.796;2022-08-01T06:53:33;22.10;;;11.57;;
3068;SDS011;1545;51.728;8.796;2022-08-01T06:56:02;21.80;;;12.03;;
3068;SDS011;1545;51.728;8.796;2022-08-01T06:58:29;18.93;;;10.57;;
3068;SDS011;1545;51.728;8.796;2022-08-01T07:00:54;14.50;;;10.10;;
3068;SDS011;1545;51.728;8.796;2022-08-01T07:03:20;16.90;;;9.73;;
3068;SDS011;1545;51.728;8.796;2022-08-01T07:05:45;16.77;;;9.97;;
3068;SDS011;1545;51.728;8.796;2022-08-01T07:08:11;19.73;;;10.07;;
3068;SDS011;1545;51.728;8.796;2022-08-01T07:10:37;13.40;;;8.13;;
3068;SDS011;1545;51.728;8.796;2022-08-01T07:13:02;15.27;;;9.07;;
3068;SDS011;1545;51.728;8.796;2022-08-01T07:15:28;14.97;;;8.20;;
3068;SDS011;1545;51.728;8.796;2022-08-01T07:17:53;11.20;;;7.77;;
3068;SDS011;1545;51.728;8.796;2022-08-01T07:20:19;10.63;;;7.10;;
3068;SDS011;1545;51.728;8.796;2022-08-01T07:22:44;10.00;;;6.70;;
3068;SDS011;1545;51.728;8.796;2022-08-01T07:25:10;10.93;;;7.23;;
3068;SDS011;1545;51.728;8.796;2022-08-01T07:27:35;16.93;;;8.90;;
3068;SDS011;1545;51.728;8.796;2022-08-01T07:30:04;10.77;;;7.10;;
3068;SDS011;1545;51.728;8.796;2022-08-01T07:32:30;10.03;;;6.70;;
3068;SDS011;1545;51.728;8.796;2022-08-01T07:34:56;9.47;;;6.63;;
3068;SDS011;1545;51.728;8.796;2022-08-01T07:37:21;9.40;;;7.40;;
3068;SDS011;1545;51.728;8.796;2022-08-01T07:39:48;14.27;;;8.90;;
3068;SDS011;1545;51.728;8.796;2022-08-01T07:42:14;12.27;;;8.33;;
3068;SDS011;1545;51.728;8.796;2022-08-01T07:44:40;14.10;;;8.03;;
3068;SDS011;1545;51.728;8.796;2022-08-01T07:47:07;15.90;;;8.60;;
3068;SDS011;1545;51.728;8.796;2022-08-01T07:49:51;7.57;;;4.93;;
3068;SDS011;1545;51.728;8.796;2022-08-01T07:53:08;8.13;;;4.97;;
3068;SDS011;1545;51.728;8.796;2022-08-01T07:55:54;8.30;;;4.80;;
3068;SDS011;1545;51.728;8.796;2022-08-01T07:58:19;5.20;;;3.93;;
3068;SDS011;1545;51.728;8.796;2022-08-01T08:00:47;4.97;;;4.13;;
3068;SDS011;1545;51.728;8.796;2022-08-01T08:03:24;7.80;;;4.80;;
3068;SDS011;1545;51.728;8.796;2022-08-01T08:06:00;5.43;;;4.53;;
3068;SDS011;1545;51.728;8.796;2022-08-01T08:08:39;8.17;;;4.70;;
3068;SDS011;1545;51.728;8.796;2022-08-01T08:11:07;10.30;;;4.57;;
3068;SDS011;1545;51.728;8.796;2022-08-01T08:13:42;11.90;;;4.93;;
3068;SDS011;1545;51.728;8.796;2022-08-01T08:16:28;7.93;;;5.00;;
3068;SDS011;1545;51.728;8.796;2022-08-01T08:18:54;11.80;;;5.83;;
3068;SDS011;1545;51.728;8.796;2022-08-01T08:21:22;5.90;;;4.60;;
3068;SDS011;1545;51.728;8.796;2022-08-01T08:23:50;6.43;;;5.47;;
3068;SDS011;1545;51.728;8.796;2022-08-01T08:26:34;9.23;;;5.50;;
3068;SDS011;1545;51.728;8.796;2022-08-01T08:31:55;15.90;;;7.73;;
3068;SDS011;1545;51.728;8.796;2022-08-01T08:34:40;7.67;;;5.10;;
3068;SDS011;1545;51.728;8.796;2022-08-01T08:37:11;5.17;;;4.20;;
3068;SDS011;1545;51.728;8.796;2022-08-01T08:39:44;5.60;;;4.97;;
3068;SDS011;1545;51.728;8.796;2022-08-01T08:42:29;8.57;;;6.37;;
3068;SDS011;1545;51.728;8.796;2022-08-01T08:45:14;9.10;;;6.80;;
3068;SDS011;1545;51.728;8.796;2022-08-01T08:47:53;9.67;;;6.73;;
3068;SDS011;1545;51.728;8.796;2022-08-01T08:50:28;13.50;;;7.77;;
3068;SDS011;1545;51.728;8.796;2022-08-01T08:52:59;9.97;;;7.43;;
3068;SDS011;1545;51.728;8.796;2022-08-01T08:55:28;8.30;;;6.57;;
3068;SDS011;1545;51.728;8.796;2022-08-01T09:00:53;10.50;;;6.70;;
3068;SDS011;1545;51.728;8.796;2022-08-01T09:03:29;8.90;;;6.70;;
3068;SDS011;1545;51.728;8.796;2022-08-01T09:06:03;14.37;;;6.30;;
3068;SDS011;1545;51.728;8.796;2022-08-01T09:08:43;9.70;;;5.93;;
3068;SDS011;1545;51.728;8.796;2022-08-01T09:11:28;8.07;;;5.60;;
3068;SDS011;1545;51.728;8.796;2022-08-01T09:16:34;4.57;;;3.60;;
3068;SDS011;1545;51.728;8.796;2022-08-01T09:19:26;4.87;;;3.20;;
3068;SDS011;1545;51.728;8.796;2022-08-01T09:22:28;3.77;;;3.23;;
3068;SDS011;1545;51.728;8.796;2022-08-01T09:25:09;6.57;;;3.00;;
3068;SDS011;1545;51.728;8.796;2022-08-01T09:27:44;7.00;;;3.20;;
3068;SDS011;1545;51.728;8.796;2022-08-01T09:32:52;5.32;;;2.90;;
3068;SDS011;1545;51.728;8.796;2022-08-01T09:35:29;4.28;;;2.70;;
3068;SDS011;1545;51.728;8.796;2022-08-01T09:38:15;4.75;;;2.78;;
3068;SDS011;1545;51.728;8.796;2022-08-01T09:41:00;4.25;;;3.28;;
3068;SDS011;1545;51.728;8.796;2022-08-01T09:43:36;5.97;;;3.20;;
3068;SDS011;1545;51.728;8.796;2022-08-01T09:46:09;16.38;;;5.00;;
3068;SDS011;1545;51.728;8.796;2022-08-01T09:48:56;7.13;;;3.45;;
3068;SDS011;1545;51.728;8.796;2022-08-01T09:51:27;5.70;;;3.80;;
3068;SDS011;1545;51.728;8.796;2022-08-01T09:53:57;4.60;;;3.70;;
3068;SDS011;1545;51.728;8.796;2022-08-01T09:56:28;7.25;;;4.00;;
3068;SDS011;1545;51.728;8.796;2022-08-01T09:59:07;5.63;;;3.72;;
3068;SDS011;1545;51.728;8.796;2022-08-01T10:01:49;6.25;;;3.20;;
3068;SDS011;1545;51.728;8.796;2022-08-01T10:04:20;2.90;;;2.80;;
3068;SDS011;1545;51.728;8.796;2022-08-01T10:06:50;5.73;;;3.60;;
3068;SDS011;1545;51.728;8.796;2022-08-01T10:09:36;4.23;;;3.50;;
3068;SDS011;1545;51.728;8.796;2022-08-01T10:12:08;4.63;;;3.20;;
3068;SDS011;1545;51.728;8.796;2022-08-01T10:14:48;4.67;;;3.80;;
3068;SDS011;1545;51.728;8.796;2022-08-01T10:17:24;5.07;;;3.53;;
3068;SDS011;1545;51.728;8.796;2022-08-01T10:19:50;7.33;;;3.53;;
3068;SDS011;1545;51.728;8.796;2022-08-01T10:22:19;6.40;;;4.80;;
3068;SDS011;1545;51.728;8.796;2022-08-01T10:24:52;9.27;;;5.20;;
3068;SDS011;1545;51.728;8.796;2022-08-01T10:27:24;12.87;;;5.97;;
3068;SDS011;1545;51.728;8.796;2022-08-01T10:29:55;8.67;;;6.60;;
3068;SDS011;1545;51.728;8.796;2022-08-01T10:32:30;8.80;;;5.77;;
3068;SDS011;1545;51.728;8.796;2022-08-01T10:34:56;8.43;;;5.00;;
3068;SDS011;1545;51.728;8.796;2022-08-01T10:37:31;11.00;;;5.73;;
3068;SDS011;1545;51.728;8.796;2022-08-01T11:16:24;13.77;;;6.73;;
3068;SDS011;1545;51.728;8.796;2022-08-01T11:19:11;6.43;;;4.63;;
3068;SDS011;1545;51.728;8.796;2022-08-01T11:22:21;6.87;;;5.00;;
3068;SDS011;1545;51.728;8.796;2022-08-01T11:25:15;7.10;;;5.33;;
3068;SDS011;1545;51.728;8.796;2022-08-01T11:30:53;4.73;;;3.73;;
3068;SDS011;1545;51.728;8.796;2022-08-01T11:33:57;8.90;;;4.07;;
3068;SDS011;1545;51.728;8.796;2022-08-01T11:37:22;5.50;;;2.90;;
3068;SDS011;1545;51.728;8.796;2022-08-01T11:40:27;8.80;;;2.57;;
3068;SDS011;1545;51.728;8.796;2022-08-01T11:50:35;4.83;;;2.80;;
3068;SDS011;1545;51.728;8.796;2022-08-01T11:56:46;4.10;;;3.27;;
3068;SDS011;1545;51.728;8.796;2022-08-01T12:03:23;2.20;;;2.00;;
3068;SDS011;1545;51.728;8.796;2022-08-01T12:06:37;5.67;;;2.13;;
3068;SDS011;1545;51.728;8.796;2022-08-01T12:09:39;1.50;;;1.40;;
3068;SDS011;1545;51.728;8.796;2022-08-01T12:12:33;1.57;;;1.30;;
3068;SDS011;1545;51.728;8.796;2022-08-01T12:15:13;1.47;;;1.37;;
3068;SDS011;1545;51.728;8.796;2022-08-01T12:17:46;1.50;;;1.40;;
3068;SDS011;1545;51.728;8.796;2022-08-01T12:20:35;2.70;;;1.30;;
3068;SDS011;1545;51.728;8.796;2022-08-01T12:23:17;1.43;;;1.33;;
3068;SDS011;1545;51.728;8.796;2022-08-01T12:25:43;1.93;;;1.20;;
3068;SDS011;1545;51.728;8.796;2022-08-01T12:28:09;3.63;;;1.70;;
3068;SDS011;1545;51.728;8.796;2022-08-01T12:30:41;2.57;;;1.80;;
3068;SDS011;1545;51.728;8.796;2022-08-01T12:33:16;2.77;;;1.60;;
3068;SDS011;1545;51.728;8.796;2022-08-01T12:35:45;2.03;;;1.80;;
3068;SDS011;1545;51.728;8.796;2022-08-01T12:38:15;1.80;;;1.70;;
3068;SDS011;1545;51.728;8.796;2022-08-01T12:40:47;6.17;;;2.30;;
3068;SDS011;1545;51.728;8.796;2022-08-01T12:43:16;1.73;;;1.63;;
3068;SDS011;1545;51.728;8.796;2022-08-01T12:45:43;1.90;;;1.80;;
3068;SDS011;1545;51.728;8.796;2022-08-01T12:48:12;3.93;;;1.60;;
3068;SDS011;1545;51.728;8.796;2022-08-01T12:50:43;1.70;;;1.60;;
3068;SDS011;1545;51.728;8.796;2022-08-01T12:53:14;5.50;;;2.03;;
3068;SDS011;1545;51.728;8.796;2022-08-01T12:55:58;1.93;;;1.80;;
3068;SDS011;1545;51.728;8.796;2022-08-01T12:58:24;1.87;;;1.77;;
3068;SDS011;1545;51.728;8.796;2022-08-01T13:01:04;3.13;;;2.10;;
3068;SDS011;1545;51.728;8.796;2022-08-01T13:03:30;5.23;;;2.80;;
3068;SDS011;1545;51.728;8.796;2022-08-01T13:09:06;3.83;;;3.33;;
3068;SDS011;1545;51.728;8.796;2022-08-01T13:11:36;5.50;;;3.40;;
3068;SDS011;1545;51.728;8.796;2022-08-01T13:14:04;3.77;;;3.10;;
3068;SDS011;1545;51.728;8.796;2022-08-01T13:16:30;4.30;;;3.20;;
3068;SDS011;1545;51.728;8.796;2022-08-01T13:19:01;5.53;;;3.07;;
3068;SDS011;1545;51.728;8.796;2022-08-01T13:21:27;4.37;;;3.00;;
3068;SDS011;1545;51.728;8.796;2022-08-01T13:24:04;10.13;;;3.47;;
3068;SDS011;1545;51.728;8.796;2022-08-01T13:29:11;3.97;;;3.27;;
3068;SDS011;1545;51.728;8.796;2022-08-01T13:31:41;10.80;;;3.80;;
3068;SDS011;1545;51.728;8.796;2022-08-01T13:34:06;3.77;;;2.93;;
3068;SDS011;1545;51.728;8.796;2022-08-01T13:36:33;4.23;;;2.70;;
3068;SDS011;1545;51.728;8.796;2022-08-01T13:38:59;6.53;;;3.40;;
3068;SDS011;1545;51.728;8.796;2022-08-01T13:41:50;7.37;;;3.60;;
3068;SDS011;1545;51.728;8.796;2022-08-01T13:44:18;3.67;;;3.00;;
3068;SDS011;1545;51.728;8.796;2022-08-01T13:46:44;3.07;;;2.83;;
3068;SDS011;1545;51.728;8.796;2022-08-01T13:49:12;5.50;;;2.80;;
3068;SDS011;1545;51.728;8.796;2022-08-01T13:51:39;5.93;;;2.87;;
3068;SDS011;1545;51.728;8.796;2022-08-01T13:54:05;3.30;;;2.60;;
3068;SDS011;1545;51.728;8.796;2022-08-01T13:56:34;4.90;;;2.90;;
3068;SDS011;1545;51.728;8.796;2022-08-01T13:58:59;4.03;;;3.13;;
3068;SDS011;1545;51.728;8.796;2022-08-01T14:01:25;5.60;;;2.77;;
3068;SDS011;1545;51.728;8.796;2022-08-01T14:03:53;3.27;;;2.87;;
3068;SDS011;1545;51.728;8.796;2022-08-01T14:06:22;6.07;;;3.80;;
3068;SDS011;1545;51.728;8.796;2022-08-01T14:08:48;4.10;;;3.30;;
3068;SDS011;1545;51.728;8.796;2022-08-01T14:11:17;11.07;;;3.50;;
3068;SDS011;1545;51.728;8.796;2022-08-01T14:13:42;4.27;;;3.23;;
3068;SDS011;1545;51.728;8.796;2022-08-01T14:16:08;5.10;;;3.40;;
3068;SDS011;1545;51.728;8.796;2022-08-01T14:18:34;3.93;;;3.40;;
3068;SDS011;1545;51.728;8.796;2022-08-01T14:21:02;4.30;;;3.60;;
3068;SDS011;1545;51.728;8.796;2022-08-01T14:23:28;4.87;;;4.33;;
3068;SDS011;1545;51.728;8.796;2022-08-01T14:25:56;6.67;;;5.17;;
3068;SDS011;1545;51.728;8.796;2022-08-01T14:28:24;6.83;;;4.57;;
3068;SDS011;1545;51.728;8.796;2022-08-01T14:30:52;6.50;;;4.87;;
3068;SDS011;1545;51.728;8.796;2022-08-01T14:33:17;6.67;;;4.60;;
3068;SDS011;1545;51.728;8.796;2022-08-01T14:35:45;9.03;;;5.07;;
3068;SDS011;1545;51.728;8.796;2022-08-01T14:38:11;7.97;;;4.93;;
3068;SDS011;1545;51.728;8.796;2022-08-01T14:40:37;8.10;;;5.10;;
3068;SDS011;1545;51.728;8.796;2022-08-01T14:43:05;4.33;;;4.10;;
3068;SDS011;1545;51.728;8.796;2022-08-01T14:45:34;5.87;;;4.10;;
3068;SDS011;1545;51.728;8.796;2022-08-01T14:47:59;10.27;;;4.00;;
3068;SDS011;1545;51.728;8.796;2022-08-01T14:50:25;9.33;;;3.73;;
3068;SDS011;1545;51.728;8.796;2022-08-01T14:52:54;6.47;;;4.17;;
3068;SDS011;1545;51.728;8.796;2022-08-01T14:55:22;4.37;;;3.27;;
3068;SDS011;1545;51.728;8.796;2022-08-01T14:57:52;6.07;;;3.40;;
3068;SDS011;1545;51.728;8.796;2022-08-01T15:00:18;3.63;;;2.80;;
3068;SDS011;1545;51.728;8.796;2022-08-01T15:02:44;5.70;;;2.23;;
3068;SDS011;1545;51.728;8.796;2022-08-01T15:05:13;5.03;;;2.33;;
3068;SDS011;1545;51.728;8.796;2022-08-01T15:07:38;3.53;;;2.30;;
3068;SDS011;1545;51.728;8.796;2022-08-01T15:10:04;3.33;;;2.03;;
3068;SDS011;1545;51.728;8.796;2022-08-01T15:12:30;2.67;;;2.13;;
3068;SDS011;1545;51.728;8.796;2022-08-01T15:14:59;3.23;;;2.20;;
3068;SDS011;1545;51.728;8.796;2022-08-01T15:17:27;3.37;;;2.20;;
3068;SDS011;1545;51.728;8.796;2022-08-01T15:19:56;3.63;;;2.30;;
3068;SDS011;1545;51.728;8.796;2022-08-01T15:22:24;2.50;;;2.13;;
3068;SDS011;1545;51.728;8.796;2022-08-01T15:24:51;3.40;;;2.30;;
3068;SDS011;1545;51.728;8.796;2022-08-01T15:27:19;2.63;;;2.40;;
3068;SDS011;1545;51.728;8.796;2022-08-01T15:29:46;2.87;;;2.00;;
3068;SDS011;1545;51.728;8.796;2022-08-01T15:32:14;2.93;;;2.40;;
3068;SDS011;1545;51.728;8.796;2022-08-01T15:34:42;3.97;;;2.50;;
3068;SDS011;1545;51.728;8.796;2022-08-01T15:37:13;7.33;;;2.47;;
3068;SDS011;1545;51.728;8.796;2022-08-01T15:39:39;5.00;;;2.53;;
3068;SDS011;1545;51.728;8.796;2022-08-01T15:42:06;6.07;;;2.60;;
3068;SDS011;1545;51.728;8.796;2022-08-01T15:44:37;4.07;;;2.40;;
3068;SDS011;1545;51.728;8.796;2022-08-01T15:47:03;4.47;;;2.47;;
3068;SDS011;1545;51.728;8.796;2022-08-01T15:49:34;5.80;;;2.23;;
3068;SDS011;1545;51.728;8.796;2022-08-01T15:52:08;2.87;;;2.33;;
3068;SDS011;1545;51.728;8.796;2022-08-01T15:54:34;3.37;;;2.60;;
3068;SDS011;1545;51.728;8.796;2022-08-01T15:57:00;4.00;;;2.70;;
3068;SDS011;1545;51.728;8.796;2022-08-01T15:59:26;4.30;;;2.50;;
3068;SDS011;1545;51.728;8.796;2022-08-01T16:01:51;8.70;;;2.70;;
3068;SDS011;1545;51.728;8.796;2022-08-01T16:04:17;4.17;;;2.80;;
3068;SDS011;1545;51.728;8.796;2022-08-01T16:06:45;4.63;;;2.80;;
3068;SDS011;1545;51.728;8.796;2022-08-01T16:09:11;3.30;;;2.63;;
3068;SDS011;1545;51.728;8.796;2022-08-01T16:11:39;7.87;;;2.80;;
3068;SDS011;1545;51.728;8.796;2022-08-01T16:14:05;3.80;;;2.90;;
3068;SDS011;1545;51.728;8.796;2022-08-01T16:16:30;5.23;;;2.90;;
3068;SDS011;1545;51.728;8.796;2022-08-01T16:18:56;4.00;;;2.77;;
3068;SDS011;1545;51.728;8.796;2022-08-01T16:21:24;3.50;;;3.03;;
3068;SDS011;1545;51.728;8.796;2022-08-01T16:23:54;4.43;;;2.90;;
3068;SDS011;1545;51.728;8.796;2022-08-01T16:26:19;5.37;;;3.37;;
3068;SDS011;1545;51.728;8.796;2022-08-01T16:28:47;4.93;;;3.17;;
3068;SDS011;1545;51.728;8.796;2022-08-01T16:31:16;6.43;;;3.47;;
3068;SDS011;1545;51.728;8.796;2022-08-01T16:33:42;7.40;;;3.50;;
3068;SDS011;1545;51.728;8.796;2022-08-01T16:36:08;4.67;;;3.30;;
3068;SDS011;1545;51.728;8.796;2022-08-01T16:38:36;5.73;;;3.40;;
3068;SDS011;1545;51.728;8.796;2022-08-01T16:41:02;4.03;;;3.53;;
3068;SDS011;1545;51.728;8.796;2022-08-01T16:43:28;4.30;;;3.80;;
3068;SDS011;1545;51.728;8.796;2022-08-01T16:45:53;4.50;;;3.60;;
3068;SDS011;1545;51.728;8.796;2022-08-01T16:48:19;6.03;;;3.60;;
3068;SDS011;1545;51.728;8.796;2022-08-01T16:50:45;8.73;;;4.37;;
3068;SDS011;1545;51.728;8.796;2022-08-01T16:53:14;7.23;;;4.33;;
3068;SDS011;1545;51.728;8.796;2022-08-01T16:55:40;5.13;;;4.23;;
3068;SDS011;1545;51.728;8.796;2022-08-01T16:58:06;6.83;;;4.20;;
3068;SDS011;1545;51.728;8.796;2022-08-01T17:00:31;9.03;;;4.50;;
3068;SDS011;1545;51.728;8.796;2022-08-01T17:02:59;10.10;;;5.23;;
3068;SDS011;1545;51.728;8.796;2022-08-01T17:05:24;7.63;;;5.43;;
3068;SDS011;1545;51.728;8.796;2022-08-01T17:07:52;10.27;;;6.03;;
3068;SDS011;1545;51.728;8.796;2022-08-01T17:10:18;10.77;;;6.53;;
3068;SDS011;1545;51.728;8.796;2022-08-01T17:12:44;9.00;;;5.83;;